createdAt,value
2023-02-11T00:04:55.134Z,100871.83
2023-02-11T00:09:58.021Z,100857.98
2023-02-11T00:15:00.875Z,100862.76
2023-02-11T00:20:05.471Z,100860.37
2023-02-11T00:25:10.229Z,100864.30
2023-02-11T00:30:13.403Z,100863.27
2023-02-11T00:35:16.612Z,100865.99
2023-02-11T00:40:20.059Z,100861.37
2023-02-11T00:45:22.884Z,100851.64
2023-02-11T00:50:25.808Z,100851.97
2023-02-11T00:55:28.590Z,100832.81
2023-02-11T01:00:31.427Z,100818.27
2023-02-11T01:05:34.559Z,100817.42
2023-02-11T01:10:37.390Z,100806.30
2023-02-11T01:15:40.291Z,100797.41
2023-02-11T01:20:43.273Z,100783.55
2023-02-11T01:25:46.649Z,100765.92
2023-02-11T01:30:49.619Z,100760.63
2023-02-11T01:35:53.187Z,100744.88
2023-02-11T01:40:58.393Z,100740.95
2023-02-11T01:46:19.375Z,100744.52
2023-02-11T01:51:29.866Z,100746.23
2023-02-11T01:56:55.574Z,100736.14
2023-02-11T02:02:04.818Z,100709.61
2023-02-11T02:07:16.601Z,100683.80
2023-02-11T02:12:19.506Z,100666.17
2023-02-11T02:17:38.122Z,100644.42
2023-02-11T02:23:02.847Z,100619.63
2023-02-11T02:29:17.809Z,100621.70
2023-02-11T02:34:52.316Z,100616.57
2023-02-11T02:39:55.616Z,100605.59
2023-02-11T02:44:58.763Z,100594.12
2023-02-11T02:50:01.877Z,100584.89
2023-02-11T02:55:25.832Z,100579.95
2023-02-11T03:00:45.016Z,100580.14
2023-02-11T03:06:11.375Z,100576.36
2023-02-11T03:11:18.520Z,100575.16
2023-02-11T03:16:26.389Z,100579.61
2023-02-11T03:21:32.614Z,100578.59
2023-02-11T03:26:50.127Z,100564.93
2023-02-11T03:32:16.335Z,100552.59
2023-02-11T03:37:49.527Z,100568.30
2023-02-11T03:43:22.856Z,100560.78
2023-02-11T03:48:31.997Z,100561.48
2023-02-11T03:53:36.502Z,100550.22
2023-02-11T03:58:39.331Z,100533.10
2023-02-11T04:03:42.414Z,100515.99
2023-02-11T04:08:45.266Z,100507.77
2023-02-11T04:13:48.132Z,100520.58
2023-02-11T04:18:50.995Z,100519.23
2023-02-11T04:23:53.808Z,100501.63
2023-02-11T04:28:56.608Z,100490.67
2023-02-11T04:33:59.472Z,100475.26
2023-02-11T04:39:02.385Z,100452.99
2023-02-11T04:44:05.691Z,100444.29
2023-02-11T04:49:08.524Z,100431.16
2023-02-11T04:54:11.844Z,100411.50
2023-02-11T04:59:14.760Z,100403.13
2023-02-11T05:04:17.698Z,100389.95
2023-02-11T05:09:20.579Z,100387.07
2023-02-11T05:14:23.386Z,100378.90
2023-02-11T05:19:26.260Z,100372.77
2023-02-11T05:24:29.134Z,100361.48
2023-02-11T05:29:32.134Z,100356.15
2023-02-11T05:34:36.396Z,100354.13
2023-02-11T05:39:39.242Z,100346.11
2023-02-11T05:44:42.071Z,100351.45
2023-02-11T05:49:44.888Z,100337.83
2023-02-11T05:54:47.910Z,100329.81
2023-02-11T05:59:50.764Z,100332.02
2023-02-11T06:04:53.562Z,100327.42
2023-02-11T06:09:56.440Z,100333.45
2023-02-11T06:14:59.270Z,100326.13
2023-02-11T06:20:03.789Z,100330.25
2023-02-11T06:25:07.018Z,100309.05
2023-02-11T06:30:10.941Z,100304.60
2023-02-11T06:35:14.698Z,100307.68
2023-02-11T06:40:17.657Z,100307.70
2023-02-11T06:45:20.697Z,100310.45
2023-02-11T06:50:23.521Z,100301.17
2023-02-11T06:55:26.890Z,100281.49
2023-02-11T07:00:29.833Z,100271.70
2023-02-11T07:05:34.260Z,100265.90
2023-02-11T07:10:37.182Z,100264.66
2023-02-11T07:15:40.001Z,100255.92
2023-02-11T07:20:43.454Z,100240.85
2023-02-11T07:25:46.309Z,100230.54
2023-02-11T07:30:49.178Z,100221.89
2023-02-11T07:35:52.520Z,100215.34
2023-02-11T07:40:55.465Z,100208.95
2023-02-11T07:45:58.875Z,100214.87
2023-02-11T07:51:14.590Z,100212.26
2023-02-11T07:56:19.309Z,100205.69
2023-02-11T08:01:28.266Z,100208.18
2023-02-11T08:06:34.253Z,100202.06
2023-02-11T08:11:37.124Z,100189.34
2023-02-11T08:16:40.830Z,100180.82
2023-02-11T08:21:44.429Z,100196.43
2023-02-11T08:26:47.236Z,100190.05
2023-02-11T08:31:50.165Z,100185.39
2023-02-11T08:36:54.426Z,100180.77
2023-02-11T08:41:57.265Z,100180.93
2023-02-11T08:47:00.124Z,100176.85
2023-02-11T08:52:04.293Z,100169.57
2023-02-11T08:57:07.617Z,100161.52
2023-02-11T09:02:14.673Z,100151.00
2023-02-11T09:07:17.804Z,100157.58
2023-02-11T09:12:20.589Z,100163.39
2023-02-11T09:17:23.456Z,100159.70
2023-02-11T09:22:26.252Z,100149.52
2023-02-11T09:27:29.053Z,100148.84
2023-02-11T09:32:31.927Z,100155.65
2023-02-11T09:37:37.218Z,100155.40
2023-02-11T09:43:09.074Z,100146.09
2023-02-11T09:48:19.168Z,100124.08
2023-02-11T09:53:31.438Z,100106.14
2023-02-11T09:58:37.279Z,100091.55
2023-02-11T10:03:55.307Z,100076.73
2023-02-11T10:09:10.808Z,100055.77
2023-02-11T10:14:28.496Z,100049.83
2023-02-11T10:19:38.842Z,100043.64
2023-02-11T10:24:50.325Z,100046.36
2023-02-11T10:30:30.207Z,100032.94
2023-02-11T10:35:33.327Z,100041.58
2023-02-11T10:40:36.206Z,100044.63
2023-02-11T10:46:02.514Z,100061.84
2023-02-11T10:51:23.694Z,100059.80
2023-02-11T10:56:28.207Z,100056.70
2023-02-11T11:01:53.640Z,100044.09
2023-02-11T11:07:28.986Z,100032.38
2023-02-11T11:12:42.181Z,100030.75
2023-02-11T11:17:46.375Z,100029.67
2023-02-11T11:22:51.150Z,100024.91
2023-02-11T11:28:00.715Z,100005.98
2023-02-11T11:33:03.991Z,99991.23
2023-02-11T11:38:07.159Z,99972.76
2023-02-11T11:43:13.104Z,99977.66
2023-02-11T11:48:31.450Z,99975.15
2023-02-11T11:53:41.749Z,99974.63
2023-02-11T11:58:44.760Z,99977.44
2023-02-11T12:04:30.172Z,99974.59
2023-02-11T12:10:08.044Z,99957.96
2023-02-11T12:15:57.634Z,99959.52
2023-02-11T12:21:35.930Z,99977.92
2023-02-11T12:27:26.096Z,99985.65
2023-02-11T12:32:37.838Z,99990.09
2023-02-11T12:38:22.054Z,99994.02
2023-02-11T12:43:38.569Z,99997.94
2023-02-11T12:49:44.991Z,99997.96
2023-02-11T12:55:04.774Z,99991.13
2023-02-11T13:00:22.231Z,99998.09
2023-02-11T13:05:37.964Z,99995.38
2023-02-11T13:10:43.996Z,99998.52
2023-02-11T13:16:23.083Z,99993.71
2023-02-11T13:21:37.036Z,99987.27
2023-02-11T13:26:47.617Z,99983.02
2023-02-11T13:32:09.904Z,99982.65
2023-02-11T13:37:37.797Z,99979.75
2023-02-11T13:42:56.252Z,99966.52
2023-02-11T13:48:02.602Z,99967.31
2023-02-11T13:53:10.315Z,99973.31
2023-02-11T13:58:33.098Z,99969.93
2023-02-11T14:03:57.965Z,99944.02
2023-02-11T14:09:09.686Z,99954.29
2023-02-11T14:14:33.610Z,99947.63
2023-02-11T14:19:43.967Z,99932.25
2023-02-11T14:25:00.852Z,99934.09
2023-02-11T14:30:30.142Z,99946.31
2023-02-11T14:36:13.499Z,99939.05
2023-02-11T14:41:30.648Z,99936.44
2023-02-11T14:46:34.662Z,99933.04
2023-02-11T14:51:40.893Z,99929.73
2023-02-11T14:56:44.836Z,99934.20
2023-02-11T15:01:52.294Z,99930.81
2023-02-11T15:06:59.539Z,99935.20
2023-02-11T15:12:03.498Z,99945.59
2023-02-11T15:17:08.498Z,99941.96
2023-02-11T15:22:26.014Z,99945.30
2023-02-11T15:27:38.595Z,99946.96
2023-02-11T15:32:45.267Z,99954.50
2023-02-11T15:37:50.559Z,99958.06
2023-02-11T15:43:13.944Z,99966.02
2023-02-11T15:48:28.718Z,99965.23
2023-02-11T15:53:41.082Z,99968.20
2023-02-11T15:58:47.875Z,99978.52
2023-02-11T16:03:50.933Z,99979.39
2023-02-11T16:09:12.850Z,99984.12
2023-02-11T16:14:31.307Z,99989.52
2023-02-11T16:19:36.126Z,99998.27
2023-02-11T16:24:39.579Z,100001.52
2023-02-11T16:29:47.441Z,99995.27
2023-02-11T16:34:51.398Z,100000.73
2023-02-11T16:39:55.120Z,100003.36
2023-02-11T16:44:58.113Z,99999.16
2023-02-11T16:50:02.808Z,100007.73
2023-02-11T16:55:06.401Z,100016.45
2023-02-11T17:00:11.195Z,100022.38
2023-02-11T17:05:22.981Z,100026.63
2023-02-11T17:10:25.918Z,100034.60
2023-02-11T17:15:28.942Z,100039.36
2023-02-11T17:20:31.809Z,100046.86
2023-02-11T17:25:37.272Z,100048.73
2023-02-11T17:30:43.569Z,100043.45
2023-02-11T17:35:46.542Z,100046.96
2023-02-11T17:40:58.882Z,100051.41
2023-02-11T17:46:01.790Z,100064.45
2023-02-11T17:51:26.910Z,100068.17
2023-02-11T17:56:33.264Z,100068.11
2023-02-11T18:01:38.638Z,100073.66
2023-02-11T18:06:41.555Z,100074.67
2023-02-11T18:11:44.579Z,100079.44
2023-02-11T18:16:53.007Z,100075.71
2023-02-11T18:21:55.917Z,100082.89
2023-02-11T18:26:59.004Z,100090.68
2023-02-11T18:32:01.923Z,100095.29
2023-02-11T18:37:04.755Z,100099.93
2023-02-11T18:42:07.592Z,100100.41
2023-02-11T18:47:10.409Z,100103.41
2023-02-11T18:52:13.226Z,100108.89
2023-02-11T18:57:16.023Z,100118.67
2023-02-11T19:02:18.916Z,100123.40
2023-02-11T19:07:21.744Z,100133.35
2023-02-11T19:12:24.835Z,100136.48
2023-02-11T19:17:27.779Z,100136.91
2023-02-11T19:22:30.625Z,100146.44
2023-02-11T19:27:33.860Z,100152.08
2023-02-11T19:32:36.871Z,100156.34
2023-02-11T19:37:39.698Z,100162.59
2023-02-11T19:42:42.828Z,100167.85
2023-02-11T19:47:45.654Z,100172.35
2023-02-11T19:52:48.530Z,100176.69
2023-02-11T19:57:51.354Z,100186.61
2023-02-11T20:02:54.281Z,100196.38
2023-02-11T20:07:58.155Z,100203.20
2023-02-11T20:13:00.932Z,100213.80
2023-02-11T20:18:03.955Z,100218.95
2023-02-11T20:23:06.770Z,100218.37
2023-02-11T20:28:09.613Z,100227.33
2023-02-11T20:33:12.445Z,100232.55
2023-02-11T20:38:15.272Z,100244.46
2023-02-11T20:43:19.082Z,100249.46
2023-02-11T20:48:21.787Z,100256.35
2023-02-11T20:53:24.627Z,100259.58
2023-02-11T20:58:27.469Z,100267.15
2023-02-11T21:03:30.339Z,100274.92
2023-02-11T21:08:33.237Z,100287.80
2023-02-11T21:13:37.527Z,100288.30
2023-02-11T21:18:40.558Z,100291.71
2023-02-11T21:23:43.707Z,100294.64
2023-02-11T21:28:46.605Z,100297.55
2023-02-11T21:33:50.940Z,100305.00
2023-02-11T21:38:53.906Z,100310.54
2023-02-11T21:43:57.732Z,100317.98
2023-02-11T21:49:00.606Z,100328.05
2023-02-11T21:54:03.982Z,100328.67
2023-02-11T21:59:06.853Z,100334.84
2023-02-11T22:04:09.824Z,100335.92
2023-02-11T22:09:13.004Z,100339.16
2023-02-11T22:14:16.449Z,100345.11
2023-02-11T22:19:19.304Z,100355.74
2023-02-11T22:24:22.139Z,100363.18
2023-02-11T22:29:24.944Z,100379.71
2023-02-11T22:34:27.805Z,100384.62
2023-02-11T22:39:30.991Z,100391.38
2023-02-11T22:44:33.808Z,100399.98
2023-02-11T22:49:39.591Z,100402.77
2023-02-11T22:54:42.491Z,100410.85
2023-02-11T22:59:45.395Z,100418.88
2023-02-11T23:04:49.926Z,100429.77
2023-02-11T23:09:52.846Z,100429.13
2023-02-11T23:14:55.650Z,100437.85
2023-02-11T23:19:58.509Z,100436.70
2023-02-11T23:25:01.371Z,100442.00
2023-02-11T23:30:05.253Z,100448.17
2023-02-11T23:35:08.370Z,100451.75
2023-02-11T23:40:11.915Z,100471.95
2023-02-11T23:45:15.434Z,100477.78
2023-02-11T23:50:18.587Z,100484.86
2023-02-11T23:55:21.517Z,100493.13
